sensor_id;sensor_type;location;lat;lon;timestamp;temperature;humidity
38118;DHT22;23928;47.562;7.508;2023-04-25T00:02:25;9.10;99.90
38118;DHT22;23928;47.562;7.508;2023-04-25T00:04:50;9.00;99.90
38118;DHT22;23928;47.562;7.508;2023-04-25T00:07:16;9.20;99.90
38118;DHT22;23928;47.562;7.508;2023-04-25T00:09:42;9.00;99.90
38118;DHT22;23928;47.562;7.508;2023-04-25T00:12:07;9.00;99.90
38118;DHT22;23928;47.562;7.508;2023-04-25T00:14:33;9.00;99.90
38118;DHT22;23928;47.562;7.508;2023-04-25T00:17:00;9.00;99.90
38118;DHT22;23928;47.562;7.508;2023-04-25T00:19:26;9.10;99.90
38118;DHT22;23928;47.562;7.508;2023-04-25T00:21:56;9.00;99.90
38118;DHT22;23928;47.562;7.508;2023-04-25T00:24:22;9.00;99.90
38118;DHT22;23928;47.562;7.508;2023-04-25T00:26:48;9.00;99.90
38118;DHT22;23928;47.562;7.508;2023-04-25T00:29:14;8.90;99.90
38118;DHT22;23928;47.562;7.508;2023-04-25T00:31:39;8.90;99.90
38118;DHT22;23928;47.562;7.508;2023-04-25T00:34:06;8.80;99.90
38118;DHT22;23928;47.562;7.508;2023-04-25T00:36:32;8.80;99.90
38118;DHT22;23928;47.562;7.508;2023-04-25T00:38:57;8.70;99.90
38118;DHT22;23928;47.562;7.508;2023-04-25T00:41:25;8.50;99.90
38118;DHT22;23928;47.562;7.508;2023-04-25T00:43:51;8.40;99.90
38118;DHT22;23928;47.562;7.508;2023-04-25T00:46:17;8.50;99.90
38118;DHT22;23928;47.562;7.508;2023-04-25T00:48:42;8.50;99.90
38118;DHT22;23928;47.562;7.508;2023-04-25T00:51:10;8.40;99.90
38118;DHT22;23928;47.562;7.508;2023-04-25T00:53:39;8.40;99.90
38118;DHT22;23928;47.562;7.508;2023-04-25T00:56:06;8.40;99.90
38118;DHT22;23928;47.562;7.508;2023-04-25T00:58:31;8.30;99.90
38118;DHT22;23928;47.562;7.508;2023-04-25T01:00:57;8.20;99.90
38118;DHT22;23928;47.562;7.508;2023-04-25T01:03:23;8.10;99.90
38118;DHT22;23928;47.562;7.508;2023-04-25T01:05:50;8.10;99.90
38118;DHT22;23928;47.562;7.508;2023-04-25T01:08:16;8.10;99.90
38118;DHT22;23928;47.562;7.508;2023-04-25T01:10:41;8.10;99.90
38118;DHT22;23928;47.562;7.508;2023-04-25T01:13:07;8.00;99.90
38118;DHT22;23928;47.562;7.508;2023-04-25T01:15:33;7.90;99.90
38118;DHT22;23928;47.562;7.508;2023-04-25T01:18:00;7.90;99.90
38118;DHT22;23928;47.562;7.508;2023-04-25T01:20:27;7.90;99.90
38118;DHT22;23928;47.562;7.508;2023-04-25T01:22:54;7.90;99.90
38118;DHT22;23928;47.562;7.508;2023-04-25T01:25:21;7.90;99.90
38118;DHT22;23928;47.562;7.508;2023-04-25T01:27:47;7.90;99.90
38118;DHT22;23928;47.562;7.508;2023-04-25T01:30:13;8.00;99.90
38118;DHT22;23928;47.562;7.508;2023-04-25T01:32:40;8.00;99.90
38118;DHT22;23928;47.562;7.508;2023-04-25T01:35:11;8.00;99.90
38118;DHT22;23928;47.562;7.508;2023-04-25T01:40:04;7.90;99.90
38118;DHT22;23928;47.562;7.508;2023-04-25T01:42:32;7.90;99.90
38118;DHT22;23928;47.562;7.508;2023-04-25T01:44:57;7.90;99.90
38118;DHT22;23928;47.562;7.508;2023-04-25T01:47:23;7.80;99.90
38118;DHT22;23928;47.562;7.508;2023-04-25T01:49:49;7.70;99.90
38118;DHT22;23928;47.562;7.508;2023-04-25T01:52:15;7.70;99.90
38118;DHT22;23928;47.562;7.508;2023-04-25T01:54:41;7.60;99.90
38118;DHT22;23928;47.562;7.508;2023-04-25T01:57:12;7.60;99.90
38118;DHT22;23928;47.562;7.508;2023-04-25T01:59:38;7.50;99.90
38118;DHT22;23928;47.562;7.508;2023-04-25T02:02:04;7.40;99.90
38118;DHT22;23928;47.562;7.508;2023-04-25T02:04:30;7.30;99.90
38118;DHT22;23928;47.562;7.508;2023-04-25T02:06:56;7.30;99.90
38118;DHT22;23928;47.562;7.508;2023-04-25T02:09:21;7.30;99.90
38118;DHT22;23928;47.562;7.508;2023-04-25T02:11:47;7.20;99.90
38118;DHT22;23928;47.562;7.508;2023-04-25T02:14:13;7.20;99.90
38118;DHT22;23928;47.562;7.508;2023-04-25T02:16:39;7.10;99.90
38118;DHT22;23928;47.562;7.508;2023-04-25T02:19:05;7.10;99.90
38118;DHT22;23928;47.562;7.508;2023-04-25T02:21:31;7.10;99.90
38118;DHT22;23928;47.562;7.508;2023-04-25T02:23:57;7.00;99.90
38118;DHT22;23928;47.562;7.508;2023-04-25T02:26:23;7.00;99.90
38118;DHT22;23928;47.562;7.508;2023-04-25T02:28:49;7.00;99.90
38118;DHT22;23928;47.562;7.508;2023-04-25T02:31:15;6.90;99.90
38118;DHT22;23928;47.562;7.508;2023-04-25T02:33:42;6.90;99.90
38118;DHT22;23928;47.562;7.508;2023-04-25T02:36:08;7.10;99.90
38118;DHT22;23928;47.562;7.508;2023-04-25T02:38:34;6.90;99.90
38118;DHT22;23928;47.562;7.508;2023-04-25T02:40:59;6.90;99.90
38118;DHT22;23928;47.562;7.508;2023-04-25T02:43:25;6.80;99.90
38118;DHT22;23928;47.562;7.508;2023-04-25T02:45:51;6.90;99.90
38118;DHT22;23928;47.562;7.508;2023-04-25T02:48:16;6.90;99.90
38118;DHT22;23928;47.562;7.508;2023-04-25T02:50:42;7.00;99.90
38118;DHT22;23928;47.562;7.508;2023-04-25T02:53:08;6.90;99.90
38118;DHT22;23928;47.562;7.508;2023-04-25T02:55:33;6.90;99.90
38118;DHT22;23928;47.562;7.508;2023-04-25T02:57:59;6.90;99.90
38118;DHT22;23928;47.562;7.508;2023-04-25T03:00:24;6.90;99.90
38118;DHT22;23928;47.562;7.508;2023-04-25T03:02:50;6.90;99.90
38118;DHT22;23928;47.562;7.508;2023-04-25T03:05:16;6.90;99.90
38118;DHT22;23928;47.562;7.508;2023-04-25T03:07:42;6.90;99.90
38118;DHT22;23928;47.562;7.508;2023-04-25T03:10:10;6.90;99.90
38118;DHT22;23928;47.562;7.508;2023-04-25T03:12:35;6.80;99.90
38118;DHT22;23928;47.562;7.508;2023-04-25T03:15:01;6.90;99.90
38118;DHT22;23928;47.562;7.508;2023-04-25T03:17:27;6.90;99.90
38118;DHT22;23928;47.562;7.508;2023-04-25T03:19:52;6.90;99.90
38118;DHT22;23928;47.562;7.508;2023-04-25T03:22:18;6.90;99.90
38118;DHT22;23928;47.562;7.508;2023-04-25T03:24:44;6.80;99.90
38118;DHT22;23928;47.562;7.508;2023-04-25T03:27:09;6.90;99.90
38118;DHT22;23928;47.562;7.508;2023-04-25T03:29:35;7.10;99.90
38118;DHT22;23928;47.562;7.508;2023-04-25T03:32:00;7.00;99.90
38118;DHT22;23928;47.562;7.508;2023-04-25T03:34:26;7.00;99.90
38118;DHT22;23928;47.562;7.508;2023-04-25T03:36:52;7.00;99.90
38118;DHT22;23928;47.562;7.508;2023-04-25T03:39:17;7.00;99.90
38118;DHT22;23928;47.562;7.508;2023-04-25T03:41:43;7.00;99.90
38118;DHT22;23928;47.562;7.508;2023-04-25T03:44:08;6.90;99.90
38118;DHT22;23928;47.562;7.508;2023-04-25T03:46:34;6.90;99.90
38118;DHT22;23928;47.562;7.508;2023-04-25T03:48:59;7.00;99.90
38118;DHT22;23928;47.562;7.508;2023-04-25T03:51:25;7.00;99.90
38118;DHT22;23928;47.562;7.508;2023-04-25T03:53:52;7.00;99.90
38118;DHT22;23928;47.562;7.508;2023-04-25T03:56:18;6.90;99.90
38118;DHT22;23928;47.562;7.508;2023-04-25T03:58:44;7.00;99.90
38118;DHT22;23928;47.562;7.508;2023-04-25T04:01:10;7.10;99.90
38118;DHT22;23928;47.562;7.508;2023-04-25T04:03:36;7.10;99.90
38118;DHT22;23928;47.562;7.508;2023-04-25T04:06:06;7.00;99.90
38118;DHT22;23928;47.562;7.508;2023-04-25T04:08:32;7.00;99.90
38118;DHT22;23928;47.562;7.508;2023-04-25T04:10:58;7.10;99.90
38118;DHT22;23928;47.562;7.508;2023-04-25T04:13:26;7.20;99.90
38118;DHT22;23928;47.562;7.508;2023-04-25T04:15:52;7.10;99.90
38118;DHT22;23928;47.562;7.508;2023-04-25T04:18:18;7.10;99.90
38118;DHT22;23928;47.562;7.508;2023-04-25T04:20:43;7.10;99.90
38118;DHT22;23928;47.562;7.508;2023-04-25T04:23:09;7.10;99.90
38118;DHT22;23928;47.562;7.508;2023-04-25T04:25:34;7.20;99.90
38118;DHT22;23928;47.562;7.508;2023-04-25T04:28:00;7.30;99.90
38118;DHT22;23928;47.562;7.508;2023-04-25T04:30:27;7.40;99.90
38118;DHT22;23928;47.562;7.508;2023-04-25T04:32:56;7.30;99.90
38118;DHT22;23928;47.562;7.508;2023-04-25T04:35:23;7.30;99.90
38118;DHT22;23928;47.562;7.508;2023-04-25T04:37:49;7.40;99.90
38118;DHT22;23928;47.562;7.508;2023-04-25T04:40:14;7.60;99.90
38118;DHT22;23928;47.562;7.508;2023-04-25T04:42:43;7.40;99.90
38118;DHT22;23928;47.562;7.508;2023-04-25T04:45:10;7.10;99.90
38118;DHT22;23928;47.562;7.508;2023-04-25T04:47:36;6.80;99.90
38118;DHT22;23928;47.562;7.508;2023-04-25T04:50:03;6.70;99.90
38118;DHT22;23928;47.562;7.508;2023-04-25T04:52:29;6.60;99.90
38118;DHT22;23928;47.562;7.508;2023-04-25T04:54:55;6.60;99.90
38118;DHT22;23928;47.562;7.508;2023-04-25T04:57:21;6.50;99.90
38118;DHT22;23928;47.562;7.508;2023-04-25T04:59:46;6.40;99.90
38118;DHT22;23928;47.562;7.508;2023-04-25T05:02:12;6.50;99.90
38118;DHT22;23928;47.562;7.508;2023-04-25T05:04:37;6.60;99.90
38118;DHT22;23928;47.562;7.508;2023-04-25T05:07:03;6.50;99.90
38118;DHT22;23928;47.562;7.508;2023-04-25T05:09:28;6.60;99.90
38118;DHT22;23928;47.562;7.508;2023-04-25T05:11:54;6.80;99.90
38118;DHT22;23928;47.562;7.508;2023-04-25T05:14:20;7.00;99.90
38118;DHT22;23928;47.562;7.508;2023-04-25T05:16:47;7.00;99.90
38118;DHT22;23928;47.562;7.508;2023-04-25T05:19:12;7.10;99.90
38118;DHT22;23928;47.562;7.508;2023-04-25T05:21:38;7.00;99.90
38118;DHT22;23928;47.562;7.508;2023-04-25T05:24:04;6.90;99.90
38118;DHT22;23928;47.562;7.508;2023-04-25T05:26:29;7.00;99.90
38118;DHT22;23928;47.562;7.508;2023-04-25T05:28:59;7.00;99.90
38118;DHT22;23928;47.562;7.508;2023-04-25T05:31:25;7.10;99.90
38118;DHT22;23928;47.562;7.508;2023-04-25T05:33:51;7.00;99.90
38118;DHT22;23928;47.562;7.508;2023-04-25T05:36:18;7.00;99.90
38118;DHT22;23928;47.562;7.508;2023-04-25T05:38:44;7.10;99.90
38118;DHT22;23928;47.562;7.508;2023-04-25T05:41:09;7.10;99.90
38118;DHT22;23928;47.562;7.508;2023-04-25T05:43:35;7.10;99.90
38118;DHT22;23928;47.562;7.508;2023-04-25T05:46:01;7.20;99.90
38118;DHT22;23928;47.562;7.508;2023-04-25T05:48:26;7.10;99.90
38118;DHT22;23928;47.562;7.508;2023-04-25T05:50:52;7.10;99.90
38118;DHT22;23928;47.562;7.508;2023-04-25T05:53:19;7.20;99.90
38118;DHT22;23928;47.562;7.508;2023-04-25T05:55:44;7.20;99.90
38118;DHT22;23928;47.562;7.508;2023-04-25T05:58:10;7.30;99.90
38118;DHT22;23928;47.562;7.508;2023-04-25T06:00:36;7.30;99.90
38118;DHT22;23928;47.562;7.508;2023-04-25T06:03:01;7.30;99.90
38118;DHT22;23928;47.562;7.508;2023-04-25T06:05:27;7.30;99.90
38118;DHT22;23928;47.562;7.508;2023-04-25T06:07:53;7.40;99.90
38118;DHT22;23928;47.562;7.508;2023-04-25T06:10:18;7.40;99.90
38118;DHT22;23928;47.562;7.508;2023-04-25T06:12:44;7.50;99.90
38118;DHT22;23928;47.562;7.508;2023-04-25T06:15:10;7.60;99.90
38118;DHT22;23928;47.562;7.508;2023-04-25T06:17:36;7.50;99.90
38118;DHT22;23928;47.562;7.508;2023-04-25T06:20:02;7.50;99.90
38118;DHT22;23928;47.562;7.508;2023-04-25T06:22:29;7.50;99.90
38118;DHT22;23928;47.562;7.508;2023-04-25T06:24:54;7.50;99.90
38118;DHT22;23928;47.562;7.508;2023-04-25T06:27:22;7.60;99.90
38118;DHT22;23928;47.562;7.508;2023-04-25T06:29:48;7.70;99.90
38118;DHT22;23928;47.562;7.508;2023-04-25T06:32:13;7.70;99.90
38118;DHT22;23928;47.562;7.508;2023-04-25T06:34:39;7.80;99.90
38118;DHT22;23928;47.562;7.508;2023-04-25T06:37:05;7.90;99.90
38118;DHT22;23928;47.562;7.508;2023-04-25T06:39:30;7.70;99.90
38118;DHT22;23928;47.562;7.508;2023-04-25T06:41:56;7.80;99.90
38118;DHT22;23928;47.562;7.508;2023-04-25T06:44:21;7.90;99.90
38118;DHT22;23928;47.562;7.508;2023-04-25T06:46:49;7.80;99.90
38118;DHT22;23928;47.562;7.508;2023-04-25T06:49:15;7.60;99.90
38118;DHT22;23928;47.562;7.508;2023-04-25T06:51:41;7.70;99.90
38118;DHT22;23928;47.562;7.508;2023-04-25T06:54:06;7.70;99.90
38118;DHT22;23928;47.562;7.508;2023-04-25T06:56:32;7.60;99.90
38118;DHT22;23928;47.562;7.508;2023-04-25T06:58:58;7.70;99.90
38118;DHT22;23928;47.562;7.508;2023-04-25T07:01:23;7.90;99.90
38118;DHT22;23928;47.562;7.508;2023-04-25T07:03:49;7.70;99.90
38118;DHT22;23928;47.562;7.508;2023-04-25T07:06:15;7.70;99.90
38118;DHT22;23928;47.562;7.508;2023-04-25T07:08:40;7.70;99.90
38118;DHT22;23928;47.562;7.508;2023-04-25T07:11:06;7.60;99.90
38118;DHT22;23928;47.562;7.508;2023-04-25T07:13:32;7.80;99.90
38118;DHT22;23928;47.562;7.508;2023-04-25T07:15:57;7.50;99.90
38118;DHT22;23928;47.562;7.508;2023-04-25T07:18:23;7.70;99.90
38118;DHT22;23928;47.562;7.508;2023-04-25T07:20:49;7.90;99.90
38118;DHT22;23928;47.562;7.508;2023-04-25T07:23:14;7.90;99.90
38118;DHT22;23928;47.562;7.508;2023-04-25T07:25:40;7.80;99.90
38118;DHT22;23928;47.562;7.508;2023-04-25T07:28:06;7.90;99.90
38118;DHT22;23928;47.562;7.508;2023-04-25T07:30:31;7.90;99.90
38118;DHT22;23928;47.562;7.508;2023-04-25T07:32:57;8.00;99.90
38118;DHT22;23928;47.562;7.508;2023-04-25T07:35:22;8.00;99.90
38118;DHT22;23928;47.562;7.508;2023-04-25T07:37:48;8.10;99.90
38118;DHT22;23928;47.562;7.508;2023-04-25T07:40:14;8.00;99.90
38118;DHT22;23928;47.562;7.508;2023-04-25T07:42:41;8.10;99.90
38118;DHT22;23928;47.562;7.508;2023-04-25T07:45:07;8.10;99.90
38118;DHT22;23928;47.562;7.508;2023-04-25T07:47:34;8.20;99.90
38118;DHT22;23928;47.562;7.508;2023-04-25T07:50:00;8.10;99.90
38118;DHT22;23928;47.562;7.508;2023-04-25T07:52:25;8.30;99.90
38118;DHT22;23928;47.562;7.508;2023-04-25T07:54:51;8.30;99.90
38118;DHT22;23928;47.562;7.508;2023-04-25T07:57:17;8.20;99.90
38118;DHT22;23928;47.562;7.508;2023-04-25T07:59:43;8.00;99.90
38118;DHT22;23928;47.562;7.508;2023-04-25T08:02:09;8.10;99.90
38118;DHT22;23928;47.562;7.508;2023-04-25T08:04:34;8.00;99.90
38118;DHT22;23928;47.562;7.508;2023-04-25T08:07:00;8.10;99.90
38118;DHT22;23928;47.562;7.508;2023-04-25T08:09:26;8.30;99.90
38118;DHT22;23928;47.562;7.508;2023-04-25T08:11:52;8.30;99.90
38118;DHT22;23928;47.562;7.508;2023-04-25T08:14:17;8.30;99.90
38118;DHT22;23928;47.562;7.508;2023-04-25T08:16:43;8.30;99.90
38118;DHT22;23928;47.562;7.508;2023-04-25T08:19:09;8.30;99.90
38118;DHT22;23928;47.562;7.508;2023-04-25T08:21:36;8.20;99.90
38118;DHT22;23928;47.562;7.508;2023-04-25T08:24:01;8.20;99.90
38118;DHT22;23928;47.562;7.508;2023-04-25T08:26:28;8.30;99.90
38118;DHT22;23928;47.562;7.508;2023-04-25T08:28:54;8.40;99.90
38118;DHT22;23928;47.562;7.508;2023-04-25T08:31:19;8.40;99.90
38118;DHT22;23928;47.562;7.508;2023-04-25T08:33:46;8.50;99.90
38118;DHT22;23928;47.562;7.508;2023-04-25T08:36:11;8.50;99.90
38118;DHT22;23928;47.562;7.508;2023-04-25T08:38:37;8.50;99.90
38118;DHT22;23928;47.562;7.508;2023-04-25T08:41:03;8.40;99.90
38118;DHT22;23928;47.562;7.508;2023-04-25T08:43:29;8.40;99.90
38118;DHT22;23928;47.562;7.508;2023-04-25T08:45:59;8.40;99.90
38118;DHT22;23928;47.562;7.508;2023-04-25T08:48:27;8.40;99.90
38118;DHT22;23928;47.562;7.508;2023-04-25T08:50:54;8.60;99.90
38118;DHT22;23928;47.562;7.508;2023-04-25T08:53:25;8.90;99.90
38118;DHT22;23928;47.562;7.508;2023-04-25T08:55:55;8.90;99.90
38118;DHT22;23928;47.562;7.508;2023-04-25T08:58:21;8.90;99.90
38118;DHT22;23928;47.562;7.508;2023-04-25T09:00:47;9.20;99.90
38118;DHT22;23928;47.562;7.508;2023-04-25T09:03:13;9.30;99.90
38118;DHT22;23928;47.562;7.508;2023-04-25T09:05:40;9.40;99.90
38118;DHT22;23928;47.562;7.508;2023-04-25T09:08:06;9.70;99.90
38118;DHT22;23928;47.562;7.508;2023-04-25T09:10:32;9.80;99.90
38118;DHT22;23928;47.562;7.508;2023-04-25T09:13:02;9.60;99.90
38118;DHT22;23928;47.562;7.508;2023-04-25T09:15:29;9.90;99.90
38118;DHT22;23928;47.562;7.508;2023-04-25T09:17:56;9.90;99.90
38118;DHT22;23928;47.562;7.508;2023-04-25T09:20:21;10.00;99.90
38118;DHT22;23928;47.562;7.508;2023-04-25T09:22:47;10.10;99.90
38118;DHT22;23928;47.562;7.508;2023-04-25T09:25:13;10.00;99.90
38118;DHT22;23928;47.562;7.508;2023-04-25T09:27:52;10.00;99.90
38118;DHT22;23928;47.562;7.508;2023-04-25T09:30:17;9.80;99.90
38118;DHT22;23928;47.562;7.508;2023-04-25T09:32:43;9.80;99.90
38118;DHT22;23928;47.562;7.508;2023-04-25T09:35:10;9.70;99.90
38118;DHT22;23928;47.562;7.508;2023-04-25T09:37:36;9.70;99.90
38118;DHT22;23928;47.562;7.508;2023-04-25T09:40:06;9.80;99.90
38118;DHT22;23928;47.562;7.508;2023-04-25T09:42:33;10.20;99.90
38118;DHT22;23928;47.562;7.508;2023-04-25T09:45:01;10.10;99.90
38118;DHT22;23928;47.562;7.508;2023-04-25T09:47:31;10.50;99.90
38118;DHT22;23928;47.562;7.508;2023-04-25T09:49:57;10.50;99.90
38118;DHT22;23928;47.562;7.508;2023-04-25T09:52:24;10.40;99.90
38118;DHT22;23928;47.562;7.508;2023-04-25T09:54:51;10.20;99.90
38118;DHT22;23928;47.562;7.508;2023-04-25T09:57:24;10.10;99.90
38118;DHT22;23928;47.562;7.508;2023-04-25T09:59:51;10.30;99.90
38118;DHT22;23928;47.562;7.508;2023-04-25T10:02:24;10.50;99.90
38118;DHT22;23928;47.562;7.508;2023-04-25T10:04:54;10.60;99.90
38118;DHT22;23928;47.562;7.508;2023-04-25T10:07:22;11.00;99.90
38118;DHT22;23928;47.562;7.508;2023-04-25T10:09:58;11.10;99.90
38118;DHT22;23928;47.562;7.508;2023-04-25T10:12:28;11.20;99.90
38118;DHT22;23928;47.562;7.508;2023-04-25T10:14:54;11.10;99.90
38118;DHT22;23928;47.562;7.508;2023-04-25T10:17:21;11.60;99.90
38118;DHT22;23928;47.562;7.508;2023-04-25T10:19:47;11.00;99.90
38118;DHT22;23928;47.562;7.508;2023-04-25T10:22:18;11.00;99.90
38118;DHT22;23928;47.562;7.508;2023-04-25T10:24:46;11.50;99.90
38118;DHT22;23928;47.562;7.508;2023-04-25T10:27:12;11.90;99.90
38118;DHT22;23928;47.562;7.508;2023-04-25T10:29:38;11.10;99.90
38118;DHT22;23928;47.562;7.508;2023-04-25T10:32:08;11.00;99.90
38118;DHT22;23928;47.562;7.508;2023-04-25T10:34:42;11.60;99.90
38118;DHT22;23928;47.562;7.508;2023-04-25T10:37:09;12.00;99.90
38118;DHT22;23928;47.562;7.508;2023-04-25T10:39:41;12.60;99.90
38118;DHT22;23928;47.562;7.508;2023-04-25T10:42:07;12.70;99.90
38118;DHT22;23928;47.562;7.508;2023-04-25T10:44:33;12.80;99.90
38118;DHT22;23928;47.562;7.508;2023-04-25T10:47:01;12.30;99.90
38118;DHT22;23928;47.562;7.508;2023-04-25T10:52:27;12.50;99.90
38118;DHT22;23928;47.562;7.508;2023-04-25T10:54:56;12.00;99.90
38118;DHT22;23928;47.562;7.508;2023-04-25T10:57:41;12.30;99.90
38118;DHT22;23928;47.562;7.508;2023-04-25T11:00:14;12.40;99.90
38118;DHT22;23928;47.562;7.508;2023-04-25T11:02:49;12.60;99.90
38118;DHT22;23928;47.562;7.508;2023-04-25T11:07:52;12.50;99.90
38118;DHT22;23928;47.562;7.508;2023-04-25T11:10:18;13.00;99.90
38118;DHT22;23928;47.562;7.508;2023-04-25T11:12:46;13.10;99.90
38118;DHT22;23928;47.562;7.508;2023-04-25T11:15:13;13.00;99.90
38118;DHT22;23928;47.562;7.508;2023-04-25T11:17:39;13.10;99.90
38118;DHT22;23928;47.562;7.508;2023-04-25T11:20:07;12.90;99.90
38118;DHT22;23928;47.562;7.508;2023-04-25T11:22:38;13.30;99.90
38118;DHT22;23928;47.562;7.508;2023-04-25T11:25:10;13.70;99.90
38118;DHT22;23928;47.562;7.508;2023-04-25T11:27:53;13.00;99.90
38118;DHT22;23928;47.562;7.508;2023-04-25T11:30:19;13.00;99.90
38118;DHT22;23928;47.562;7.508;2023-04-25T11:32:45;12.80;99.90
38118;DHT22;23928;47.562;7.508;2023-04-25T11:35:11;13.70;99.90
38118;DHT22;23928;47.562;7.508;2023-04-25T11:37:42;13.70;99.90
38118;DHT22;23928;47.562;7.508;2023-04-25T11:40:09;14.00;99.90
38118;DHT22;23928;47.562;7.508;2023-04-25T11:42:45;13.80;99.90
38118;DHT22;23928;47.562;7.508;2023-04-25T11:45:12;13.80;99.90
38118;DHT22;23928;47.562;7.508;2023-04-25T11:47:38;13.70;99.90
38118;DHT22;23928;47.562;7.508;2023-04-25T11:50:05;13.50;99.90
38118;DHT22;23928;47.562;7.508;2023-04-25T11:52:38;13.10;99.90
38118;DHT22;23928;47.562;7.508;2023-04-25T11:55:09;12.90;99.90
38118;DHT22;23928;47.562;7.508;2023-04-25T11:57:37;12.90;99.90
38118;DHT22;23928;47.562;7.508;2023-04-25T12:00:14;12.60;99.90
38118;DHT22;23928;47.562;7.508;2023-04-25T12:02:41;13.10;99.90
38118;DHT22;23928;47.562;7.508;2023-04-25T12:05:08;13.50;99.90
38118;DHT22;23928;47.562;7.508;2023-04-25T12:07:35;13.30;99.90
38118;DHT22;23928;47.562;7.508;2023-04-25T12:10:08;12.70;99.90
38118;DHT22;23928;47.562;7.508;2023-04-25T12:12:34;11.90;99.90
38118;DHT22;23928;47.562;7.508;2023-04-25T12:15:14;10.60;99.90
38118;DHT22;23928;47.562;7.508;2023-04-25T12:17:46;10.10;99.90
38118;DHT22;23928;47.562;7.508;2023-04-25T12:20:18;9.70;99.90
38118;DHT22;23928;47.562;7.508;2023-04-25T12:22:46;9.60;99.90
38118;DHT22;23928;47.562;7.508;2023-04-25T12:25:13;9.70;99.90
38118;DHT22;23928;47.562;7.508;2023-04-25T12:27:40;10.00;99.90
38118;DHT22;23928;47.562;7.508;2023-04-25T12:30:09;10.80;99.90
38118;DHT22;23928;47.562;7.508;2023-04-25T12:32:36;11.70;99.90
38118;DHT22;23928;47.562;7.508;2023-04-25T12:35:04;12.10;99.90
38118;DHT22;23928;47.562;7.508;2023-04-25T12:37:30;11.90;99.90
38118;DHT22;23928;47.562;7.508;2023-04-25T12:39:56;11.60;99.90
38118;DHT22;23928;47.562;7.508;2023-04-25T12:42:21;11.60;99.90
38118;DHT22;23928;47.562;7.508;2023-04-25T12:44:47;12.00;99.90
38118;DHT22;23928;47.562;7.508;2023-04-25T12:47:12;12.90;99.90
38118;DHT22;23928;47.562;7.508;2023-04-25T12:49:39;12.90;99.90
38118;DHT22;23928;47.562;7.508;2023-04-25T12:52:04;12.70;99.90
38118;DHT22;23928;47.562;7.508;2023-04-25T12:54:30;12.80;99.90
38118;DHT22;23928;47.562;7.508;2023-04-25T12:56:56;12.70;99.90
38118;DHT22;23928;47.562;7.508;2023-04-25T12:59:22;12.70;99.90
38118;DHT22;23928;47.562;7.508;2023-04-25T13:01:48;12.10;99.90
38118;DHT22;23928;47.562;7.508;2023-04-25T13:04:14;12.30;99.90
38118;DHT22;23928;47.562;7.508;2023-04-25T13:06:40;12.60;99.90
38118;DHT22;23928;47.562;7.508;2023-04-25T13:09:06;13.50;99.90
38118;DHT22;23928;47.562;7.508;2023-04-25T13:11:32;13.80;99.90
38118;DHT22;23928;47.562;7.508;2023-04-25T13:13:58;14.00;99.90
38118;DHT22;23928;47.562;7.508;2023-04-25T13:16:23;13.70;99.90
38118;DHT22;23928;47.562;7.508;2023-04-25T13:18:49;13.40;99.90
38118;DHT22;23928;47.562;7.508;2023-04-25T13:21:14;13.20;99.90
38118;DHT22;23928;47.562;7.508;2023-04-25T13:23:40;14.30;99.90
38118;DHT22;23928;47.562;7.508;2023-04-25T13:26:08;14.40;99.90
38118;DHT22;23928;47.562;7.508;2023-04-25T13:28:33;14.40;99.90
38118;DHT22;23928;47.562;7.508;2023-04-25T13:30:59;14.10;99.90
38118;DHT22;23928;47.562;7.508;2023-04-25T13:33:25;14.70;99.90
38118;DHT22;23928;47.562;7.508;2023-04-25T13:35:51;14.80;99.90
38118;DHT22;23928;47.562;7.508;2023-04-25T13:38:22;14.90;99.90
38118;DHT22;23928;47.562;7.508;2023-04-25T13:40:48;15.00;99.90
38118;DHT22;23928;47.562;7.508;2023-04-25T13:43:13;14.40;99.90
38118;DHT22;23928;47.562;7.508;2023-04-25T13:45:39;14.20;99.90
38118;DHT22;23928;47.562;7.508;2023-04-25T13:48:05;14.00;99.90
38118;DHT22;23928;47.562;7.508;2023-04-25T13:50:31;14.20;99.90
38118;DHT22;23928;47.562;7.508;2023-04-25T13:52:57;14.30;99.90
38118;DHT22;23928;47.562;7.508;2023-04-25T13:55:22;14.00;99.90
38118;DHT22;23928;47.562;7.508;2023-04-25T13:57:48;13.70;99.90
38118;DHT22;23928;47.562;7.508;2023-04-25T14:00:14;13.50;99.90
38118;DHT22;23928;47.562;7.508;2023-04-25T14:02:39;13.60;99.90
38118;DHT22;23928;47.562;7.508;2023-04-25T14:05:05;14.00;99.90
38118;DHT22;23928;47.562;7.508;2023-04-25T14:07:33;14.40;99.90
38118;DHT22;23928;47.562;7.508;2023-04-25T14:10:00;14.60;99.90
38118;DHT22;23928;47.562;7.508;2023-04-25T14:12:26;15.40;99.90
38118;DHT22;23928;47.562;7.508;2023-04-25T14:14:51;16.00;99.90
38118;DHT22;23928;47.562;7.508;2023-04-25T14:17:18;15.90;99.90
38118;DHT22;23928;47.562;7.508;2023-04-25T14:19:44;15.70;99.90
38118;DHT22;23928;47.562;7.508;2023-04-25T14:22:13;16.40;99.90
38118;DHT22;23928;47.562;7.508;2023-04-25T14:24:39;16.40;99.90
38118;DHT22;23928;47.562;7.508;2023-04-25T14:27:05;16.30;99.90
38118;DHT22;23928;47.562;7.508;2023-04-25T14:29:31;15.50;99.90
38118;DHT22;23928;47.562;7.508;2023-04-25T14:31:56;14.90;99.90
38118;DHT22;23928;47.562;7.508;2023-04-25T14:34:24;14.60;99.90
38118;DHT22;23928;47.562;7.508;2023-04-25T14:36:49;13.70;99.90
38118;DHT22;23928;47.562;7.508;2023-04-25T14:39:15;14.10;99.90
38118;DHT22;23928;47.562;7.508;2023-04-25T14:41:41;13.70;99.90
38118;DHT22;23928;47.562;7.508;2023-04-25T14:44:07;13.60;99.90
38118;DHT22;23928;47.562;7.508;2023-04-25T14:46:33;13.40;99.90
38118;DHT22;23928;47.562;7.508;2023-04-25T14:48:59;13.00;99.90
38118;DHT22;23928;47.562;7.508;2023-04-25T14:51:25;12.50;99.90
38118;DHT22;23928;47.562;7.508;2023-04-25T14:53:51;12.20;99.90
38118;DHT22;23928;47.562;7.508;2023-04-25T14:56:18;11.60;99.90
38118;DHT22;23928;47.562;7.508;2023-04-25T14:58:44;11.50;99.90
38118;DHT22;23928;47.562;7.508;2023-04-25T15:01:11;11.20;99.90
38118;DHT22;23928;47.562;7.508;2023-04-25T15:03:38;11.00;99.90
38118;DHT22;23928;47.562;7.508;2023-04-25T15:06:04;10.70;99.90
38118;DHT22;23928;47.562;7.508;2023-04-25T15:08:29;11.20;99.90
38118;DHT22;23928;47.562;7.508;2023-04-25T15:10:56;11.10;99.90
38118;DHT22;23928;47.562;7.508;2023-04-25T15:13:21;11.20;99.90
38118;DHT22;23928;47.562;7.508;2023-04-25T15:15:47;11.40;99.90
38118;DHT22;23928;47.562;7.508;2023-04-25T15:18:17;11.30;99.90
38118;DHT22;23928;47.562;7.508;2023-04-25T15:20:43;11.10;99.90
38118;DHT22;23928;47.562;7.508;2023-04-25T15:23:08;11.30;99.90
38118;DHT22;23928;47.562;7.508;2023-04-25T15:25:34;11.10;99.90
38118;DHT22;23928;47.562;7.508;2023-04-25T15:27:59;10.80;99.90
38118;DHT22;23928;47.562;7.508;2023-04-25T15:30:25;11.10;99.90
38118;DHT22;23928;47.562;7.508;2023-04-25T15:32:50;11.40;99.90
38118;DHT22;23928;47.562;7.508;2023-04-25T15:35:16;11.70;99.90
38118;DHT22;23928;47.562;7.508;2023-04-25T15:37:42;11.70;99.90
38118;DHT22;23928;47.562;7.508;2023-04-25T15:40:18;11.80;99.90
38118;DHT22;23928;47.562;7.508;2023-04-25T15:42:51;12.00;99.90
38118;DHT22;23928;47.562;7.508;2023-04-25T15:45:18;12.60;99.90